Decoded Metar for CYHU (MONTREAL in QC, CANADA) (IATA:YHU) | Meteo·Mobile Aviation Weather
aviador You're here:

CYHU Decoded Metar

MONTREAL in QC, CANADA
Report Time2018-10-23 10:00:00
UTC Time2018-10-23 10:42:50
Flight Rules vfr VFR
Wind070° at 02 kt
W.Decomp.*RWY 10: 1.9 kt HW 0.5 kt LCW
RWY 06: 1.8 kt HW 0.9 kt RCW
W.Rank070° ranks 34
Current wind is below 070° avg. (5.5)
Visibility9999 m
Phenomena:N/A
Clouds:Overcast 032 Hf
Expected CloudBase > 800 ft AGL from Temp-Dew spread
Ceiling3,200 ft
Temp01°C (ISA -14)
Dew Point-1°C (87% RH)
AAT-1.8°C
QNH1019 hPa
Density Alt-1,722 ft
Elevation89 ft
Report Wrong Elevation
Raw Report
CYHU 231000Z AUTO 07002KT 9SM OVC032 01/M01 A3010 RMK SLP196=

Extra information for CYHU:More info

Metar Taf Metar & Taf Last 4 Metars F.Rules Stats Wind Profile Meteogram Temp Stats Airport Information Weather charts Add Link Nearby VenuesMetar ALERT Operation Metar Decoded Social comments